Eyebrow, Canada
Current Conditions -  °F | °C
As of 7:10 AM on Monday 22 Dec 2014 (Local Time) from CYQR Reporting Station
Haze Haze  
Wind Chill: 11°   Ceiling: 200
Heat Index: 23°   Visibility: 0.62mi
Dew Point: 23°   Wind: 13mph
Humidity: 100%   Direction: 320°NW
Pressure: 29.58"   Gusts: NA
Location:  50.8°N, 106.15°W
Report Text: CYQR 221310Z 32011KT 5/8SM R13/3500V5000FT/D BR VV002 M05/M05 A2958 RMK FG8 SLP049
Loading
Personal Weather Stations






























Interactive Weather Map New forecast layout! Learn more

10-Day Weather Forecast

Advertisements
Track Severe Weather on mobile